sensor_id;sensor_type;location;lat;lon;timestamp;P1;durP1;ratioP1;P2;durP2;ratioP2
56343;SDS011;42245;42.058;24.700;2024-03-08T00:00:13;95.90;;;41.87;;
56343;SDS011;42245;42.058;24.700;2024-03-08T00:02:39;94.43;;;40.37;;
56343;SDS011;42245;42.058;24.700;2024-03-08T00:05:05;89.33;;;39.80;;
56343;SDS011;42245;42.058;24.700;2024-03-08T00:07:31;91.37;;;41.20;;
56343;SDS011;42245;42.058;24.700;2024-03-08T00:09:57;89.70;;;40.43;;
56343;SDS011;42245;42.058;24.700;2024-03-08T00:12:23;81.40;;;38.87;;
56343;SDS011;42245;42.058;24.700;2024-03-08T00:14:50;90.10;;;39.43;;
56343;SDS011;42245;42.058;24.700;2024-03-08T00:17:16;92.30;;;41.30;;
56343;SDS011;42245;42.058;24.700;2024-03-08T00:19:41;88.93;;;39.47;;
56343;SDS011;42245;42.058;24.700;2024-03-08T00:22:07;88.93;;;41.17;;
56343;SDS011;42245;42.058;24.700;2024-03-08T00:24:33;85.30;;;39.30;;
56343;SDS011;42245;42.058;24.700;2024-03-08T00:26:58;90.00;;;40.00;;
56343;SDS011;42245;42.058;24.700;2024-03-08T00:29:24;86.93;;;40.43;;
56343;SDS011;42245;42.058;24.700;2024-03-08T00:31:49;87.60;;;40.13;;
56343;SDS011;42245;42.058;24.700;2024-03-08T00:34:15;83.93;;;40.73;;
56343;SDS011;42245;42.058;24.700;2024-03-08T00:36:41;96.50;;;42.90;;
56343;SDS011;42245;42.058;24.700;2024-03-08T00:39:06;85.37;;;40.70;;
56343;SDS011;42245;42.058;24.700;2024-03-08T00:41:32;93.73;;;41.70;;
56343;SDS011;42245;42.058;24.700;2024-03-08T00:43:58;88.77;;;40.67;;
56343;SDS011;42245;42.058;24.700;2024-03-08T00:46:23;91.70;;;42.53;;
56343;SDS011;42245;42.058;24.700;2024-03-08T00:48:49;95.43;;;42.00;;
56343;SDS011;42245;42.058;24.700;2024-03-08T00:51:14;85.77;;;40.07;;
56343;SDS011;42245;42.058;24.700;2024-03-08T00:53:41;91.00;;;39.57;;
56343;SDS011;42245;42.058;24.700;2024-03-08T00:56:08;97.20;;;42.10;;
56343;SDS011;42245;42.058;24.700;2024-03-08T00:58:36;99.23;;;43.30;;
56343;SDS011;42245;42.058;24.700;2024-03-08T01:01:02;89.83;;;41.27;;
56343;SDS011;42245;42.058;24.700;2024-03-08T01:03:29;95.40;;;41.03;;
56343;SDS011;42245;42.058;24.700;2024-03-08T01:05:57;103.53;;;41.43;;
56343;SDS011;42245;42.058;24.700;2024-03-08T01:08:22;94.87;;;39.80;;
56343;SDS011;42245;42.058;24.700;2024-03-08T01:10:48;92.10;;;39.43;;
56343;SDS011;42245;42.058;24.700;2024-03-08T01:13:15;78.20;;;38.07;;
56343;SDS011;42245;42.058;24.700;2024-03-08T01:15:41;89.43;;;38.33;;
56343;SDS011;42245;42.058;24.700;2024-03-08T01:18:07;91.70;;;39.80;;
56343;SDS011;42245;42.058;24.700;2024-03-08T01:20:33;82.67;;;38.43;;
56343;SDS011;42245;42.058;24.700;2024-03-08T01:22:58;88.33;;;37.93;;
56343;SDS011;42245;42.058;24.700;2024-03-08T01:25:24;87.30;;;37.80;;
56343;SDS011;42245;42.058;24.700;2024-03-08T01:27:49;82.80;;;37.37;;
56343;SDS011;42245;42.058;24.700;2024-03-08T01:30:14;85.93;;;37.77;;
56343;SDS011;42245;42.058;24.700;2024-03-08T01:32:42;83.23;;;38.60;;
56343;SDS011;42245;42.058;24.700;2024-03-08T01:35:09;93.57;;;40.50;;
56343;SDS011;42245;42.058;24.700;2024-03-08T01:37:34;89.63;;;38.30;;
56343;SDS011;42245;42.058;24.700;2024-03-08T01:40:00;85.60;;;39.90;;
56343;SDS011;42245;42.058;24.700;2024-03-08T01:42:25;84.57;;;38.87;;
56343;SDS011;42245;42.058;24.700;2024-03-08T01:44:51;83.30;;;37.60;;
56343;SDS011;42245;42.058;24.700;2024-03-08T01:47:17;96.57;;;39.80;;
56343;SDS011;42245;42.058;24.700;2024-03-08T01:49:43;83.87;;;36.77;;
56343;SDS011;42245;42.058;24.700;2024-03-08T01:52:09;83.73;;;38.50;;
56343;SDS011;42245;42.058;24.700;2024-03-08T01:54:34;88.53;;;38.83;;
56343;SDS011;42245;42.058;24.700;2024-03-08T01:57:01;83.07;;;36.37;;
56343;SDS011;42245;42.058;24.700;2024-03-08T01:59:26;95.00;;;39.47;;
56343;SDS011;42245;42.058;24.700;2024-03-08T02:01:53;88.50;;;38.83;;
56343;SDS011;42245;42.058;24.700;2024-03-08T02:04:20;87.87;;;38.47;;
56343;SDS011;42245;42.058;24.700;2024-03-08T02:06:46;82.83;;;37.80;;
56343;SDS011;42245;42.058;24.700;2024-03-08T02:09:13;74.93;;;35.93;;
56343;SDS011;42245;42.058;24.700;2024-03-08T02:11:39;72.00;;;34.57;;
56343;SDS011;42245;42.058;24.700;2024-03-08T02:14:06;79.50;;;35.27;;
56343;SDS011;42245;42.058;24.700;2024-03-08T02:16:31;72.83;;;35.50;;
56343;SDS011;42245;42.058;24.700;2024-03-08T02:18:58;86.67;;;37.17;;
56343;SDS011;42245;42.058;24.700;2024-03-08T02:21:23;80.37;;;35.90;;
56343;SDS011;42245;42.058;24.700;2024-03-08T02:23:49;83.90;;;36.07;;
56343;SDS011;42245;42.058;24.700;2024-03-08T02:26:17;79.93;;;35.80;;
56343;SDS011;42245;42.058;24.700;2024-03-08T02:28:43;87.43;;;35.93;;
56343;SDS011;42245;42.058;24.700;2024-03-08T02:31:09;83.80;;;35.87;;
56343;SDS011;42245;42.058;24.700;2024-03-08T02:33:35;76.20;;;33.33;;
56343;SDS011;42245;42.058;24.700;2024-03-08T02:36:01;88.47;;;36.23;;
56343;SDS011;42245;42.058;24.700;2024-03-08T02:38:26;76.40;;;34.07;;
56343;SDS011;42245;42.058;24.700;2024-03-08T02:40:53;82.90;;;35.93;;
56343;SDS011;42245;42.058;24.700;2024-03-08T02:43:20;84.83;;;35.87;;
56343;SDS011;42245;42.058;24.700;2024-03-08T02:45:49;72.50;;;34.07;;
56343;SDS011;42245;42.058;24.700;2024-03-08T02:48:15;71.67;;;32.73;;
56343;SDS011;42245;42.058;24.700;2024-03-08T02:50:41;73.53;;;33.97;;
56343;SDS011;42245;42.058;24.700;2024-03-08T02:53:10;65.20;;;30.97;;
56343;SDS011;42245;42.058;24.700;2024-03-08T02:55:36;71.53;;;33.43;;
56343;SDS011;42245;42.058;24.700;2024-03-08T02:58:04;58.20;;;30.90;;
56343;SDS011;42245;42.058;24.700;2024-03-08T03:00:30;60.30;;;31.10;;
56343;SDS011;42245;42.058;24.700;2024-03-08T03:02:59;67.40;;;31.70;;
56343;SDS011;42245;42.058;24.700;2024-03-08T03:05:25;64.30;;;30.53;;
56343;SDS011;42245;42.058;24.700;2024-03-08T03:07:50;57.50;;;29.07;;
56343;SDS011;42245;42.058;24.700;2024-03-08T03:10:16;56.83;;;28.93;;
56343;SDS011;42245;42.058;24.700;2024-03-08T03:12:43;53.77;;;27.97;;
56343;SDS011;42245;42.058;24.700;2024-03-08T03:15:10;59.83;;;30.50;;
56343;SDS011;42245;42.058;24.700;2024-03-08T03:17:36;59.37;;;30.73;;
56343;SDS011;42245;42.058;24.700;2024-03-08T03:20:02;63.33;;;32.93;;
56343;SDS011;42245;42.058;24.700;2024-03-08T03:22:34;58.20;;;28.60;;
56343;SDS011;42245;42.058;24.700;2024-03-08T03:25:01;109.40;;;39.07;;
56343;SDS011;42245;42.058;24.700;2024-03-08T03:27:29;153.17;;;46.23;;
56343;SDS011;42245;42.058;24.700;2024-03-08T03:29:55;52.10;;;25.83;;
56343;SDS011;42245;42.058;24.700;2024-03-08T03:32:22;51.77;;;27.10;;
56343;SDS011;42245;42.058;24.700;2024-03-08T03:34:48;143.77;;;46.50;;
56343;SDS011;42245;42.058;24.700;2024-03-08T03:37:18;75.90;;;32.30;;
56343;SDS011;42245;42.058;24.700;2024-03-08T03:39:44;98.60;;;35.73;;
56343;SDS011;42245;42.058;24.700;2024-03-08T03:42:18;57.07;;;27.43;;
56343;SDS011;42245;42.058;24.700;2024-03-08T03:44:47;42.40;;;22.53;;
56343;SDS011;42245;42.058;24.700;2024-03-08T03:47:13;50.63;;;25.50;;
56343;SDS011;42245;42.058;24.700;2024-03-08T03:49:40;56.33;;;28.20;;
56343;SDS011;42245;42.058;24.700;2024-03-08T03:52:06;65.80;;;33.23;;
56343;SDS011;42245;42.058;24.700;2024-03-08T03:54:31;89.90;;;36.00;;
56343;SDS011;42245;42.058;24.700;2024-03-08T03:56:58;70.10;;;30.73;;
56343;SDS011;42245;42.058;24.700;2024-03-08T03:59:23;67.23;;;31.47;;
56343;SDS011;42245;42.058;24.700;2024-03-08T04:01:49;55.33;;;29.30;;
56343;SDS011;42245;42.058;24.700;2024-03-08T04:04:14;49.77;;;26.93;;
56343;SDS011;42245;42.058;24.700;2024-03-08T04:06:40;49.13;;;25.80;;
56343;SDS011;42245;42.058;24.700;2024-03-08T04:09:06;47.60;;;24.93;;
56343;SDS011;42245;42.058;24.700;2024-03-08T04:11:32;49.80;;;26.87;;
56343;SDS011;42245;42.058;24.700;2024-03-08T04:13:57;44.87;;;24.73;;
56343;SDS011;42245;42.058;24.700;2024-03-08T04:16:23;49.50;;;25.80;;
56343;SDS011;42245;42.058;24.700;2024-03-08T04:18:49;50.50;;;24.70;;
56343;SDS011;42245;42.058;24.700;2024-03-08T04:21:15;47.80;;;26.93;;
56343;SDS011;42245;42.058;24.700;2024-03-08T04:23:40;50.13;;;26.93;;
56343;SDS011;42245;42.058;24.700;2024-03-08T04:26:06;40.07;;;22.73;;
56343;SDS011;42245;42.058;24.700;2024-03-08T04:28:32;40.07;;;22.67;;
56343;SDS011;42245;42.058;24.700;2024-03-08T04:30:58;34.17;;;19.87;;
56343;SDS011;42245;42.058;24.700;2024-03-08T04:33:25;28.60;;;17.60;;
56343;SDS011;42245;42.058;24.700;2024-03-08T04:35:51;30.30;;;18.67;;
56343;SDS011;42245;42.058;24.700;2024-03-08T04:38:17;32.53;;;18.93;;
56343;SDS011;42245;42.058;24.700;2024-03-08T04:40:42;33.43;;;19.03;;
56343;SDS011;42245;42.058;24.700;2024-03-08T04:43:08;30.47;;;17.77;;
56343;SDS011;42245;42.058;24.700;2024-03-08T04:45:35;37.40;;;19.80;;
56343;SDS011;42245;42.058;24.700;2024-03-08T04:48:01;34.80;;;19.90;;
56343;SDS011;42245;42.058;24.700;2024-03-08T04:50:27;36.80;;;19.43;;
56343;SDS011;42245;42.058;24.700;2024-03-08T04:52:54;34.27;;;19.17;;
56343;SDS011;42245;42.058;24.700;2024-03-08T04:55:20;38.17;;;20.97;;
56343;SDS011;42245;42.058;24.700;2024-03-08T04:57:46;37.43;;;19.37;;
56343;SDS011;42245;42.058;24.700;2024-03-08T05:00:12;29.77;;;17.20;;
56343;SDS011;42245;42.058;24.700;2024-03-08T05:02:39;32.53;;;18.20;;
56343;SDS011;42245;42.058;24.700;2024-03-08T05:05:06;33.47;;;19.43;;
56343;SDS011;42245;42.058;24.700;2024-03-08T05:07:32;37.97;;;20.47;;
56343;SDS011;42245;42.058;24.700;2024-03-08T05:10:00;44.30;;;22.57;;
56343;SDS011;42245;42.058;24.700;2024-03-08T05:12:27;44.10;;;23.33;;
56343;SDS011;42245;42.058;24.700;2024-03-08T05:14:53;41.57;;;21.67;;
56343;SDS011;42245;42.058;24.700;2024-03-08T05:17:18;42.40;;;22.10;;
56343;SDS011;42245;42.058;24.700;2024-03-08T05:19:44;42.53;;;22.93;;
56343;SDS011;42245;42.058;24.700;2024-03-08T05:22:10;43.27;;;21.60;;
56343;SDS011;42245;42.058;24.700;2024-03-08T05:24:35;45.33;;;22.93;;
56343;SDS011;42245;42.058;24.700;2024-03-08T05:27:01;43.33;;;22.23;;
56343;SDS011;42245;42.058;24.700;2024-03-08T05:29:27;42.37;;;21.97;;
56343;SDS011;42245;42.058;24.700;2024-03-08T05:31:56;43.40;;;23.17;;
56343;SDS011;42245;42.058;24.700;2024-03-08T05:34:22;43.50;;;23.80;;
56343;SDS011;42245;42.058;24.700;2024-03-08T05:36:48;47.97;;;24.57;;
56343;SDS011;42245;42.058;24.700;2024-03-08T05:39:15;49.40;;;23.43;;
56343;SDS011;42245;42.058;24.700;2024-03-08T05:41:42;46.60;;;23.63;;
56343;SDS011;42245;42.058;24.700;2024-03-08T05:44:08;47.23;;;24.63;;
56343;SDS011;42245;42.058;24.700;2024-03-08T05:46:34;49.13;;;24.97;;
56343;SDS011;42245;42.058;24.700;2024-03-08T05:49:03;56.47;;;26.03;;
56343;SDS011;42245;42.058;24.700;2024-03-08T05:51:33;56.43;;;26.97;;
56343;SDS011;42245;42.058;24.700;2024-03-08T05:54:04;59.53;;;28.33;;
56343;SDS011;42245;42.058;24.700;2024-03-08T05:56:32;52.93;;;27.27;;
56343;SDS011;42245;42.058;24.700;2024-03-08T05:58:58;61.80;;;28.07;;
56343;SDS011;42245;42.058;24.700;2024-03-08T06:01:24;101.27;;;28.87;;
56343;SDS011;42245;42.058;24.700;2024-03-08T06:03:50;74.33;;;30.57;;
56343;SDS011;42245;42.058;24.700;2024-03-08T06:06:15;88.67;;;31.57;;
56343;SDS011;42245;42.058;24.700;2024-03-08T06:08:42;60.70;;;27.77;;
56343;SDS011;42245;42.058;24.700;2024-03-08T06:11:08;103.10;;;29.77;;
56343;SDS011;42245;42.058;24.700;2024-03-08T06:13:34;124.53;;;60.13;;
56343;SDS011;42245;42.058;24.700;2024-03-08T06:16:00;76.33;;;30.73;;
56343;SDS011;42245;42.058;24.700;2024-03-08T06:18:29;69.63;;;30.10;;
56343;SDS011;42245;42.058;24.700;2024-03-08T06:20:55;79.00;;;40.10;;
56343;SDS011;42245;42.058;24.700;2024-03-08T06:23:21;65.93;;;32.03;;
56343;SDS011;42245;42.058;24.700;2024-03-08T06:25:47;68.60;;;30.70;;
56343;SDS011;42245;42.058;24.700;2024-03-08T06:28:12;58.83;;;30.17;;
56343;SDS011;42245;42.058;24.700;2024-03-08T06:30:39;71.23;;;30.63;;
56343;SDS011;42245;42.058;24.700;2024-03-08T06:33:05;58.70;;;29.57;;
56343;SDS011;42245;42.058;24.700;2024-03-08T06:35:30;58.77;;;28.33;;
56343;SDS011;42245;42.058;24.700;2024-03-08T06:37:57;63.83;;;30.60;;
56343;SDS011;42245;42.058;24.700;2024-03-08T06:40:23;66.03;;;30.13;;
56343;SDS011;42245;42.058;24.700;2024-03-08T06:42:48;78.13;;;29.17;;
56343;SDS011;42245;42.058;24.700;2024-03-08T06:45:14;67.93;;;31.83;;
56343;SDS011;42245;42.058;24.700;2024-03-08T06:47:44;59.63;;;29.30;;
56343;SDS011;42245;42.058;24.700;2024-03-08T06:50:10;90.00;;;31.03;;
56343;SDS011;42245;42.058;24.700;2024-03-08T06:52:36;66.90;;;28.37;;
56343;SDS011;42245;42.058;24.700;2024-03-08T06:55:02;56.43;;;28.77;;
56343;SDS011;42245;42.058;24.700;2024-03-08T06:57:30;54.50;;;28.43;;
56343;SDS011;42245;42.058;24.700;2024-03-08T06:59:56;53.40;;;29.33;;
56343;SDS011;42245;42.058;24.700;2024-03-08T07:02:22;56.37;;;29.03;;
56343;SDS011;42245;42.058;24.700;2024-03-08T07:04:50;54.50;;;28.20;;
56343;SDS011;42245;42.058;24.700;2024-03-08T07:07:16;57.70;;;29.50;;
56343;SDS011;42245;42.058;24.700;2024-03-08T07:09:44;59.30;;;31.00;;
56343;SDS011;42245;42.058;24.700;2024-03-08T07:12:10;58.80;;;29.33;;
56343;SDS011;42245;42.058;24.700;2024-03-08T07:14:38;53.73;;;28.53;;
56343;SDS011;42245;42.058;24.700;2024-03-08T07:17:07;64.27;;;30.73;;
56343;SDS011;42245;42.058;24.700;2024-03-08T07:19:34;59.63;;;30.67;;
56343;SDS011;42245;42.058;24.700;2024-03-08T07:22:00;62.67;;;30.63;;
56343;SDS011;42245;42.058;24.700;2024-03-08T07:24:25;64.33;;;31.10;;
56343;SDS011;42245;42.058;24.700;2024-03-08T07:27:09;62.90;;;31.57;;
56343;SDS011;42245;42.058;24.700;2024-03-08T07:29:35;69.50;;;32.00;;
56343;SDS011;42245;42.058;24.700;2024-03-08T07:32:00;66.93;;;31.97;;
56343;SDS011;42245;42.058;24.700;2024-03-08T07:34:26;64.40;;;31.90;;
56343;SDS011;42245;42.058;24.700;2024-03-08T07:36:51;64.80;;;33.27;;
56343;SDS011;42245;42.058;24.700;2024-03-08T07:39:17;66.63;;;32.07;;
56343;SDS011;42245;42.058;24.700;2024-03-08T07:41:42;63.90;;;31.20;;
56343;SDS011;42245;42.058;24.700;2024-03-08T07:44:07;60.10;;;31.43;;
56343;SDS011;42245;42.058;24.700;2024-03-08T07:46:34;65.07;;;30.50;;
56343;SDS011;42245;42.058;24.700;2024-03-08T07:49:00;64.43;;;30.50;;
56343;SDS011;42245;42.058;24.700;2024-03-08T07:51:28;67.60;;;34.13;;
56343;SDS011;42245;42.058;24.700;2024-03-08T07:54:00;65.00;;;32.43;;
56343;SDS011;42245;42.058;24.700;2024-03-08T07:56:25;62.57;;;32.50;;
56343;SDS011;42245;42.058;24.700;2024-03-08T07:58:51;56.60;;;30.47;;
56343;SDS011;42245;42.058;24.700;2024-03-08T08:01:16;56.23;;;30.73;;
56343;SDS011;42245;42.058;24.700;2024-03-08T08:03:43;63.77;;;34.47;;
56343;SDS011;42245;42.058;24.700;2024-03-08T08:06:08;59.17;;;30.03;;
56343;SDS011;42245;42.058;24.700;2024-03-08T08:08:34;54.17;;;28.10;;
56343;SDS011;42245;42.058;24.700;2024-03-08T08:11:00;59.50;;;30.23;;
56343;SDS011;42245;42.058;24.700;2024-03-08T08:13:27;62.43;;;32.53;;
56343;SDS011;42245;42.058;24.700;2024-03-08T08:15:57;65.13;;;34.73;;
56343;SDS011;42245;42.058;24.700;2024-03-08T08:18:22;81.57;;;44.70;;
56343;SDS011;42245;42.058;24.700;2024-03-08T08:20:50;67.13;;;35.63;;
56343;SDS011;42245;42.058;24.700;2024-03-08T08:23:17;81.70;;;43.73;;
56343;SDS011;42245;42.058;24.700;2024-03-08T08:25:44;68.17;;;35.57;;
56343;SDS011;42245;42.058;24.700;2024-03-08T08:28:10;69.33;;;37.67;;
56343;SDS011;42245;42.058;24.700;2024-03-08T08:30:37;57.63;;;29.63;;
56343;SDS011;42245;42.058;24.700;2024-03-08T08:33:03;56.30;;;29.03;;
56343;SDS011;42245;42.058;24.700;2024-03-08T08:35:30;58.17;;;31.23;;
56343;SDS011;42245;42.058;24.700;2024-03-08T08:37:56;61.00;;;33.93;;
56343;SDS011;42245;42.058;24.700;2024-03-08T08:40:23;65.50;;;35.50;;
56343;SDS011;42245;42.058;24.700;2024-03-08T08:42:50;84.93;;;48.07;;
56343;SDS011;42245;42.058;24.700;2024-03-08T08:45:18;68.60;;;36.17;;
56343;SDS011;42245;42.058;24.700;2024-03-08T08:47:44;76.13;;;37.60;;
56343;SDS011;42245;42.058;24.700;2024-03-08T08:50:10;64.30;;;33.10;;
56343;SDS011;42245;42.058;24.700;2024-03-08T08:52:39;82.60;;;44.57;;
56343;SDS011;42245;42.058;24.700;2024-03-08T08:55:04;74.50;;;39.80;;
56343;SDS011;42245;42.058;24.700;2024-03-08T08:57:31;73.73;;;41.30;;
56343;SDS011;42245;42.058;24.700;2024-03-08T08:59:58;87.28;;;48.50;;
56343;SDS011;42245;42.058;24.700;2024-03-08T09:02:25;89.57;;;50.27;;
56343;SDS011;42245;42.058;24.700;2024-03-08T09:04:51;81.85;;;43.65;;
56343;SDS011;42245;42.058;24.700;2024-03-08T09:07:16;65.33;;;35.67;;
56343;SDS011;42245;42.058;24.700;2024-03-08T09:09:44;67.33;;;34.60;;
56343;SDS011;42245;42.058;24.700;2024-03-08T09:12:09;67.80;;;35.37;;
56343;SDS011;42245;42.058;24.700;2024-03-08T09:14:39;67.50;;;34.37;;
56343;SDS011;42245;42.058;24.700;2024-03-08T09:17:05;70.17;;;36.23;;
56343;SDS011;42245;42.058;24.700;2024-03-08T09:19:33;62.53;;;32.17;;
56343;SDS011;42245;42.058;24.700;2024-03-08T09:21:59;60.72;;;32.28;;
56343;SDS011;42245;42.058;24.700;2024-03-08T09:24:25;61.97;;;30.97;;
56343;SDS011;42245;42.058;24.700;2024-03-08T09:26:50;65.43;;;35.23;;
56343;SDS011;42245;42.058;24.700;2024-03-08T09:29:17;67.30;;;32.13;;
56343;SDS011;42245;42.058;24.700;2024-03-08T09:31:42;59.17;;;31.33;;
56343;SDS011;42245;42.058;24.700;2024-03-08T09:34:08;60.03;;;33.30;;
56343;SDS011;42245;42.058;24.700;2024-03-08T09:36:34;65.35;;;34.40;;
56343;SDS011;42245;42.058;24.700;2024-03-08T09:38:59;72.60;;;34.75;;
56343;SDS011;42245;42.058;24.700;2024-03-08T09:41:25;62.60;;;33.97;;
56343;SDS011;42245;42.058;24.700;2024-03-08T09:43:51;81.18;;;44.90;;
56343;SDS011;42245;42.058;24.700;2024-03-08T09:46:17;72.37;;;37.87;;
56343;SDS011;42245;42.058;24.700;2024-03-08T09:48:45;74.57;;;43.33;;
56343;SDS011;42245;42.058;24.700;2024-03-08T09:51:11;66.47;;;34.47;;
56343;SDS011;42245;42.058;24.700;2024-03-08T09:53:40;61.30;;;32.20;;
56343;SDS011;42245;42.058;24.700;2024-03-08T09:56:07;63.07;;;34.60;;
56343;SDS011;42245;42.058;24.700;2024-03-08T09:58:33;61.87;;;32.87;;
56343;SDS011;42245;42.058;24.700;2024-03-08T10:00:58;59.70;;;32.27;;
56343;SDS011;42245;42.058;24.700;2024-03-08T10:03:27;55.72;;;29.73;;
56343;SDS011;42245;42.058;24.700;2024-03-08T10:05:53;53.85;;;28.38;;
56343;SDS011;42245;42.058;24.700;2024-03-08T10:08:21;55.67;;;29.63;;
56343;SDS011;42245;42.058;24.700;2024-03-08T10:10:47;53.80;;;29.52;;
56343;SDS011;42245;42.058;24.700;2024-03-08T10:13:14;52.63;;;29.43;;
56343;SDS011;42245;42.058;24.700;2024-03-08T10:15:41;54.63;;;29.70;;
56343;SDS011;42245;42.058;24.700;2024-03-08T10:18:07;50.13;;;27.60;;
56343;SDS011;42245;42.058;24.700;2024-03-08T10:20:33;50.90;;;28.23;;
56343;SDS011;42245;42.058;24.700;2024-03-08T10:23:00;52.13;;;28.55;;
56343;SDS011;42245;42.058;24.700;2024-03-08T10:25:28;54.30;;;28.48;;
56343;SDS011;42245;42.058;24.700;2024-03-08T10:27:55;54.67;;;30.58;;
56343;SDS011;42245;42.058;24.700;2024-03-08T10:30:20;47.25;;;28.20;;
56343;SDS011;42245;42.058;24.700;2024-03-08T10:32:47;44.88;;;26.00;;
56343;SDS011;42245;42.058;24.700;2024-03-08T10:35:13;47.75;;;27.40;;
56343;SDS011;42245;42.058;24.700;2024-03-08T10:40:09;50.08;;;28.90;;
56343;SDS011;42245;42.058;24.700;2024-03-08T10:42:38;44.55;;;26.35;;
56343;SDS011;42245;42.058;24.700;2024-03-08T10:45:12;51.17;;;28.35;;
56343;SDS011;42245;42.058;24.700;2024-03-08T10:47:41;49.30;;;28.80;;
56343;SDS011;42245;42.058;24.700;2024-03-08T10:50:25;46.60;;;24.75;;
56343;SDS011;42245;42.058;24.700;2024-03-08T10:52:51;46.05;;;26.00;;
56343;SDS011;42245;42.058;24.700;2024-03-08T10:55:18;40.20;;;23.60;;
56343;SDS011;42245;42.058;24.700;2024-03-08T10:57:45;41.63;;;24.13;;
56343;SDS011;42245;42.058;24.700;2024-03-08T11:00:12;42.80;;;24.63;;
56343;SDS011;42245;42.058;24.700;2024-03-08T11:02:39;42.45;;;25.65;;
56343;SDS011;42245;42.058;24.700;2024-03-08T11:05:04;45.25;;;25.65;;
56343;SDS011;42245;42.058;24.700;2024-03-08T11:07:34;43.08;;;25.10;;
56343;SDS011;42245;42.058;24.700;2024-03-08T11:10:02;42.33;;;25.38;;
56343;SDS011;42245;42.058;24.700;2024-03-08T11:12:36;38.20;;;22.98;;
56343;SDS011;42245;42.058;24.700;2024-03-08T11:15:11;42.53;;;24.95;;
56343;SDS011;42245;42.058;24.700;2024-03-08T11:20:14;40.15;;;23.52;;
56343;SDS011;42245;42.058;24.700;2024-03-08T11:22:41;36.45;;;20.80;;
56343;SDS011;42245;42.058;24.700;2024-03-08T11:25:31;35.25;;;20.55;;
56343;SDS011;42245;42.058;24.700;2024-03-08T11:28:08;33.92;;;20.50;;
56343;SDS011;42245;42.058;24.700;2024-03-08T11:30:42;42.95;;;25.38;;
56343;SDS011;42245;42.058;24.700;2024-03-08T11:33:14;48.45;;;26.70;;
56343;SDS011;42245;42.058;24.700;2024-03-08T11:35:41;26.38;;;17.10;;
56343;SDS011;42245;42.058;24.700;2024-03-08T11:38:09;26.48;;;15.32;;
56343;SDS011;42245;42.058;24.700;2024-03-08T11:40:35;28.48;;;17.15;;
56343;SDS011;42245;42.058;24.700;2024-03-08T11:43:01;23.35;;;14.85;;
56343;SDS011;42245;42.058;24.700;2024-03-08T11:45:32;24.15;;;15.45;;
56343;SDS011;42245;42.058;24.700;2024-03-08T11:48:01;24.83;;;16.27;;
56343;SDS011;42245;42.058;24.700;2024-03-08T11:50:30;28.85;;;20.25;;
56343;SDS011;42245;42.058;24.700;2024-03-08T11:53:01;28.23;;;16.73;;
56343;SDS011;42245;42.058;24.700;2024-03-08T11:55:28;24.50;;;16.95;;
56343;SDS011;42245;42.058;24.700;2024-03-08T11:58:03;21.45;;;14.50;;
56343;SDS011;42245;42.058;24.700;2024-03-08T12:00:30;17.60;;;11.95;;
56343;SDS011;42245;42.058;24.700;2024-03-08T12:03:03;18.33;;;13.07;;
56343;SDS011;42245;42.058;24.700;2024-03-08T12:05:32;18.50;;;11.93;;
56343;SDS011;42245;42.058;24.700;2024-03-08T12:10:47;16.10;;;11.05;;
56343;SDS011;42245;42.058;24.700;2024-03-08T12:13:12;19.83;;;13.00;;
56343;SDS011;42245;42.058;24.700;2024-03-08T12:15:39;17.42;;;11.77;;
56343;SDS011;42245;42.058;24.700;2024-03-08T12:18:05;18.35;;;11.55;;
56343;SDS011;42245;42.058;24.700;2024-03-08T12:20:32;22.20;;;14.50;;
56343;SDS011;42245;42.058;24.700;2024-03-08T12:22:58;23.73;;;15.70;;
56343;SDS011;42245;42.058;24.700;2024-03-08T12:25:33;23.40;;;15.25;;
56343;SDS011;42245;42.058;24.700;2024-03-08T12:28:08;24.08;;;16.13;;
56343;SDS011;42245;42.058;24.700;2024-03-08T12:33:14;20.88;;;13.57;;
56343;SDS011;42245;42.058;24.700;2024-03-08T12:35:39;21.88;;;14.80;;
56343;SDS011;42245;42.058;24.700;2024-03-08T12:38:05;23.95;;;16.42;;
56343;SDS011;42245;42.058;24.700;2024-03-08T12:40:33;30.35;;;18.98;;
56343;SDS011;42245;42.058;24.700;2024-03-08T12:43:05;21.17;;;15.13;;
56343;SDS011;42245;42.058;24.700;2024-03-08T12:45:31;24.58;;;15.50;;
56343;SDS011;42245;42.058;24.700;2024-03-08T12:47:57;21.30;;;15.18;;
56343;SDS011;42245;42.058;24.700;2024-03-08T12:50:24;22.70;;;13.70;;
56343;SDS011;42245;42.058;24.700;2024-03-08T12:52:50;23.17;;;14.20;;
56343;SDS011;42245;42.058;24.700;2024-03-08T12:55:17;22.30;;;14.63;;
56343;SDS011;42245;42.058;24.700;2024-03-08T12:57:43;23.90;;;14.02;;
56343;SDS011;42245;42.058;24.700;2024-03-08T13:00:09;19.73;;;12.73;;
56343;SDS011;42245;42.058;24.700;2024-03-08T13:02:41;19.50;;;13.30;;
56343;SDS011;42245;42.058;24.700;2024-03-08T13:05:07;19.67;;;13.52;;
56343;SDS011;42245;42.058;24.700;2024-03-08T13:07:34;20.10;;;14.18;;
56343;SDS011;42245;42.058;24.700;2024-03-08T13:10:00;19.55;;;13.88;;
56343;SDS011;42245;42.058;24.700;2024-03-08T13:12:26;24.88;;;15.32;;
56343;SDS011;42245;42.058;24.700;2024-03-08T13:14:51;21.08;;;14.80;;
56343;SDS011;42245;42.058;24.700;2024-03-08T13:17:17;22.00;;;14.63;;
56343;SDS011;42245;42.058;24.700;2024-03-08T13:19:46;17.15;;;11.63;;
56343;SDS011;42245;42.058;24.700;2024-03-08T13:22:11;18.25;;;12.15;;
56343;SDS011;42245;42.058;24.700;2024-03-08T13:24:40;16.98;;;11.75;;
56343;SDS011;42245;42.058;24.700;2024-03-08T13:27:07;17.80;;;12.65;;
56343;SDS011;42245;42.058;24.700;2024-03-08T13:29:44;16.00;;;10.68;;
56343;SDS011;42245;42.058;24.700;2024-03-08T13:32:11;21.25;;;12.10;;
56343;SDS011;42245;42.058;24.700;2024-03-08T13:34:37;15.85;;;10.40;;
56343;SDS011;42245;42.058;24.700;2024-03-08T13:37:06;21.30;;;13.60;;
56343;SDS011;42245;42.058;24.700;2024-03-08T13:39:31;18.65;;;12.52;;
56343;SDS011;42245;42.058;24.700;2024-03-08T13:42:06;17.88;;;12.40;;
56343;SDS011;42245;42.058;24.700;2024-03-08T13:44:35;16.30;;;11.75;;
56343;SDS011;42245;42.058;24.700;2024-03-08T13:47:01;18.02;;;12.13;;
56343;SDS011;42245;42.058;24.700;2024-03-08T13:49:29;15.80;;;10.82;;
56343;SDS011;42245;42.058;24.700;2024-03-08T13:51:55;18.27;;;12.32;;
56343;SDS011;42245;42.058;24.700;2024-03-08T13:54:22;17.77;;;11.50;;
56343;SDS011;42245;42.058;24.700;2024-03-08T13:56:47;14.98;;;10.90;;
56343;SDS011;42245;42.058;24.700;2024-03-08T13:59:14;18.48;;;11.43;;
56343;SDS011;42245;42.058;24.700;2024-03-08T14:01:40;21.65;;;14.20;;
56343;SDS011;42245;42.058;24.700;2024-03-08T14:04:05;23.88;;;15.70;;
56343;SDS011;42245;42.058;24.700;2024-03-08T14:06:33;15.52;;;11.10;;
56343;SDS011;42245;42.058;24.700;2024-03-08T14:08:59;15.82;;;11.65;;
56343;SDS011;42245;42.058;24.700;2024-03-08T14:11:24;18.60;;;12.18;;
56343;SDS011;42245;42.058;24.700;2024-03-08T14:13:50;17.75;;;12.23;;
56343;SDS011;42245;42.058;24.700;2024-03-08T14:16:16;20.33;;;13.43;;